createdAt,value
2018-07-14T00:01:30.075Z,6.77
2018-07-14T00:03:58.654Z,9.20
2018-07-14T00:06:27.100Z,9.97
2018-07-14T00:08:55.593Z,7.47
2018-07-14T00:11:24.019Z,6.80
2018-07-14T00:13:52.449Z,7.47
2018-07-14T00:16:20.917Z,7.33
2018-07-14T00:18:49.459Z,6.83
2018-07-14T00:21:18.009Z,7.63
2018-07-14T00:23:46.551Z,7.23
2018-07-14T00:26:18.033Z,7.20
2018-07-14T00:28:47.218Z,7.27
2018-07-14T00:31:15.910Z,7.17
2018-07-14T00:33:44.334Z,7.87
2018-07-14T00:36:12.877Z,7.53
2018-07-14T00:38:41.447Z,7.57
2018-07-14T00:41:09.863Z,8.63
2018-07-14T00:43:38.374Z,7.10
2018-07-14T00:46:08.178Z,8.47
2018-07-14T00:48:36.566Z,7.37
2018-07-14T00:51:05.047Z,7.33
2018-07-14T00:53:33.435Z,8.87
2018-07-14T00:56:01.922Z,7.33
2018-07-14T00:58:30.409Z,7.97
2018-07-14T01:00:58.891Z,7.83
2018-07-14T01:03:27.338Z,7.20
2018-07-14T01:05:55.838Z,9.17
2018-07-14T01:08:24.345Z,7.83
2018-07-14T01:10:52.800Z,8.23
2018-07-14T01:13:21.267Z,6.97
2018-07-14T01:15:49.874Z,7.43
2018-07-14T01:18:18.294Z,7.17
2018-07-14T01:20:46.811Z,7.87
2018-07-14T01:23:15.306Z,7.87
2018-07-14T01:25:44.115Z,12.77
2018-07-14T01:28:12.895Z,9.77
2018-07-14T01:30:41.447Z,7.47
2018-07-14T01:33:09.945Z,7.37
2018-07-14T01:35:38.427Z,7.30
2018-07-14T01:38:06.924Z,7.10
2018-07-14T01:40:35.434Z,9.70
2018-07-14T01:43:03.929Z,7.27
2018-07-14T01:45:32.331Z,7.77
2018-07-14T01:48:00.891Z,7.57
2018-07-14T01:50:29.399Z,7.97
2018-07-14T01:52:57.982Z,7.40
2018-07-14T01:55:26.446Z,7.57
2018-07-14T01:57:54.898Z,8.87
2018-07-14T02:00:23.431Z,8.43
2018-07-14T02:02:52.012Z,9.33
2018-07-14T02:05:20.524Z,7.90
2018-07-14T02:07:49.019Z,8.30
2018-07-14T02:10:17.503Z,7.63
2018-07-14T02:12:46.315Z,7.87
2018-07-14T02:15:14.803Z,8.70
2018-07-14T02:17:43.276Z,7.80
2018-07-14T02:20:11.786Z,8.20
2018-07-14T02:22:40.346Z,8.97
2018-07-14T02:25:08.888Z,9.00
2018-07-14T02:27:37.340Z,7.93
2018-07-14T02:30:05.830Z,7.93
2018-07-14T02:32:34.233Z,7.73
2018-07-14T02:35:02.866Z,7.73
2018-07-14T02:37:31.287Z,7.80
2018-07-14T02:39:59.675Z,9.03
2018-07-14T02:42:28.132Z,8.43
2018-07-14T02:44:56.627Z,7.50
2018-07-14T02:47:25.048Z,9.70
2018-07-14T02:49:53.428Z,8.40
2018-07-14T02:52:21.977Z,8.67
2018-07-14T02:54:50.501Z,8.77
2018-07-14T02:57:19.007Z,7.67
2018-07-14T02:59:47.428Z,8.93
2018-07-14T03:02:15.950Z,8.07
2018-07-14T03:04:44.339Z,9.17
2018-07-14T03:07:12.871Z,8.03
2018-07-14T03:09:41.254Z,8.93
2018-07-14T03:12:09.691Z,7.87
2018-07-14T03:14:38.079Z,8.17
2018-07-14T03:17:06.545Z,8.57
2018-07-14T03:19:35.400Z,8.00
2018-07-14T03:22:03.709Z,10.47
2018-07-14T03:24:31.950Z,8.40
2018-07-14T03:27:00.511Z,9.13
2018-07-14T03:29:29.096Z,8.33
2018-07-14T03:31:57.542Z,8.67
2018-07-14T03:34:26.063Z,8.67
2018-07-14T03:36:54.611Z,8.93
2018-07-14T03:39:23.015Z,8.83
2018-07-14T03:41:51.495Z,9.10
2018-07-14T03:44:20.016Z,8.67
2018-07-14T03:46:48.555Z,8.47
2018-07-14T03:49:17.025Z,8.40
2018-07-14T03:51:45.566Z,9.57
2018-07-14T03:54:14.020Z,8.23
2018-07-14T03:56:42.560Z,8.97
2018-07-14T03:59:11.034Z,9.20
2018-07-14T04:01:39.543Z,8.43
2018-07-14T04:04:08.108Z,8.30
2018-07-14T04:06:38.257Z,10.60
2018-07-14T04:09:07.135Z,9.43
2018-07-14T04:11:35.515Z,9.10
2018-07-14T04:14:04.206Z,8.63
2018-07-14T04:16:34.038Z,9.40
2018-07-14T04:19:02.561Z,8.87
2018-07-14T04:21:31.063Z,9.57
2018-07-14T04:23:59.528Z,10.93
2018-07-14T04:26:27.929Z,8.47
2018-07-14T04:28:56.398Z,11.10
2018-07-14T04:31:24.834Z,8.80
2018-07-14T04:33:53.261Z,10.03
2018-07-14T04:36:21.618Z,8.03
2018-07-14T04:38:50.011Z,9.30
2018-07-14T04:41:18.404Z,8.27
2018-07-14T04:43:46.955Z,7.50
2018-07-14T04:46:15.346Z,9.47
2018-07-14T04:48:43.906Z,9.20
2018-07-14T04:51:12.359Z,10.10
2018-07-14T04:53:40.884Z,8.50
2018-07-14T04:56:09.359Z,8.27
2018-07-14T04:58:38.576Z,8.57
2018-07-14T05:01:07.023Z,9.33
2018-07-14T05:03:35.518Z,8.37
2018-07-14T05:06:04.015Z,9.93
2018-07-14T05:08:32.422Z,11.53
2018-07-14T05:11:00.943Z,10.87
2018-07-14T05:13:29.330Z,9.47
2018-07-14T05:15:57.842Z,9.33
2018-07-14T05:18:26.255Z,9.50
2018-07-14T05:20:54.785Z,9.13
2018-07-14T05:23:23.351Z,9.63
2018-07-14T05:25:51.817Z,9.10
2018-07-14T05:28:20.243Z,9.00
2018-07-14T05:30:48.685Z,10.83
2018-07-14T05:33:17.151Z,9.40
2018-07-14T05:35:45.614Z,9.43
2018-07-14T05:38:14.056Z,10.03
2018-07-14T05:40:42.658Z,9.87
2018-07-14T05:43:11.156Z,9.10
2018-07-14T05:45:39.711Z,10.07
2018-07-14T05:48:08.114Z,9.47
2018-07-14T05:50:36.568Z,9.83
2018-07-14T05:53:05.265Z,9.53
2018-07-14T05:55:33.858Z,9.40
2018-07-14T05:58:02.204Z,8.93
2018-07-14T06:00:30.709Z,9.03
2018-07-14T06:02:59.323Z,8.87
2018-07-14T06:05:27.902Z,9.30
2018-07-14T06:07:56.423Z,9.43
2018-07-14T06:10:24.877Z,8.97
2018-07-14T06:12:53.512Z,9.33
2018-07-14T06:15:21.942Z,8.37
2018-07-14T06:17:50.632Z,7.90
2018-07-14T06:20:19.107Z,7.73
2018-07-14T06:22:47.534Z,8.23
2018-07-14T06:25:16.080Z,7.63
2018-07-14T06:27:44.520Z,8.77
2018-07-14T06:30:13.011Z,8.23
2018-07-14T06:32:41.439Z,7.80
2018-07-14T06:35:10.179Z,7.70
2018-07-14T06:37:38.642Z,8.23
2018-07-14T06:40:07.212Z,7.60
2018-07-14T06:42:35.808Z,9.90
2018-07-14T06:45:04.524Z,8.83
2018-07-14T06:47:33.112Z,7.87
2018-07-14T06:50:01.540Z,9.77
2018-07-14T06:52:33.118Z,7.93
2018-07-14T06:55:01.617Z,7.83
2018-07-14T06:57:30.113Z,7.00
2018-07-14T07:00:00.070Z,7.20
2018-07-14T07:02:28.791Z,6.63
2018-07-14T07:04:57.389Z,7.63
2018-07-14T07:07:26.026Z,7.10
2018-07-14T07:09:54.530Z,7.87
2018-07-14T07:12:23.003Z,6.17
2018-07-14T07:14:52.653Z,6.73
2018-07-14T07:17:21.117Z,5.83
2018-07-14T07:19:49.559Z,5.57
2018-07-14T07:22:18.038Z,7.37
2018-07-14T07:24:46.536Z,9.27
2018-07-14T07:27:15.095Z,7.07
2018-07-14T07:29:43.727Z,5.07
2018-07-14T07:32:12.212Z,6.50
2018-07-14T07:34:40.788Z,5.77
2018-07-14T07:37:09.301Z,5.57
2018-07-14T07:39:37.869Z,6.60
2018-07-14T07:42:06.017Z,5.13
2018-07-14T07:44:34.563Z,5.70
2018-07-14T07:47:03.096Z,4.90
2018-07-14T07:49:31.214Z,5.30
2018-07-14T07:52:02.937Z,6.10
2018-07-14T07:54:31.762Z,7.43
2018-07-14T07:57:00.199Z,6.37
2018-07-14T07:59:28.680Z,5.60
2018-07-14T08:01:57.236Z,5.33
2018-07-14T08:04:25.788Z,6.43
2018-07-14T08:06:54.617Z,7.17
2018-07-14T08:09:23.161Z,5.23
2018-07-14T08:11:51.964Z,4.63
2018-07-14T08:14:20.538Z,6.27
2018-07-14T08:16:49.532Z,5.00
2018-07-14T08:19:18.254Z,7.57
2018-07-14T08:21:46.903Z,5.73
2018-07-14T08:24:15.346Z,4.77
2018-07-14T08:26:43.843Z,5.13
2018-07-14T08:29:12.323Z,4.40
2018-07-14T08:31:41.136Z,5.27
2018-07-14T08:34:09.645Z,4.17
2018-07-14T08:36:37.795Z,4.07
2018-07-14T08:39:07.144Z,4.20
2018-07-14T08:41:35.592Z,4.27
2018-07-14T08:44:04.098Z,3.27
2018-07-14T08:46:35.789Z,3.00
2018-07-14T08:49:04.227Z,3.40
2018-07-14T08:51:32.783Z,3.33
2018-07-14T08:54:01.163Z,3.23
2018-07-14T08:56:29.645Z,3.17
2018-07-14T08:58:58.203Z,3.90
2018-07-14T09:01:26.802Z,3.60
2018-07-14T09:03:55.384Z,5.43
2018-07-14T09:06:23.885Z,3.30
2018-07-14T09:08:52.323Z,4.07
2018-07-14T09:11:20.803Z,3.10
2018-07-14T09:13:49.407Z,3.27
2018-07-14T09:16:17.982Z,3.50
2018-07-14T09:18:46.612Z,3.33
2018-07-14T09:21:15.075Z,3.50
2018-07-14T09:23:43.701Z,3.87
2018-07-14T09:26:12.256Z,3.70
2018-07-14T09:28:40.647Z,3.30
2018-07-14T09:31:09.267Z,3.60
2018-07-14T09:33:37.874Z,6.77
2018-07-14T09:36:06.311Z,4.03
2018-07-14T09:38:34.776Z,4.67
2018-07-14T09:41:03.352Z,6.60
2018-07-14T09:43:32.080Z,8.27
2018-07-14T09:46:00.543Z,6.13
2018-07-14T09:48:28.979Z,4.03
2018-07-14T09:50:57.495Z,4.30
2018-07-14T09:53:25.951Z,3.57
2018-07-14T09:55:54.431Z,4.30
2018-07-14T09:58:23.002Z,4.60
2018-07-14T10:00:56.755Z,3.60
2018-07-14T10:03:25.440Z,3.70
2018-07-14T10:05:53.851Z,4.87
2018-07-14T10:08:22.470Z,4.67
2018-07-14T10:10:50.947Z,7.90
2018-07-14T10:13:19.499Z,6.47
2018-07-14T10:15:47.880Z,5.40
2018-07-14T10:18:16.417Z,5.40
2018-07-14T10:20:44.969Z,6.70
2018-07-14T10:23:13.470Z,4.90
2018-07-14T10:25:42.057Z,5.47
2018-07-14T10:28:10.336Z,10.23
2018-07-14T10:30:38.771Z,5.87
2018-07-14T10:33:07.352Z,8.60
2018-07-14T10:35:35.838Z,6.90
2018-07-14T10:38:04.453Z,5.40
2018-07-14T10:40:34.039Z,8.50
2018-07-14T10:43:02.485Z,4.70
2018-07-14T10:45:30.942Z,5.00
2018-07-14T10:47:59.363Z,6.13
2018-07-14T10:50:27.876Z,4.00
2018-07-14T10:52:56.387Z,4.77
2018-07-14T10:55:24.883Z,4.63
2018-07-14T10:57:53.308Z,5.00
2018-07-14T11:00:25.029Z,7.77
2018-07-14T11:02:53.514Z,5.03
2018-07-14T11:05:22.055Z,4.47
2018-07-14T11:07:50.688Z,5.30
2018-07-14T11:10:19.237Z,4.10
2018-07-14T11:12:47.688Z,9.43
2018-07-14T11:15:16.381Z,3.97
2018-07-14T11:17:44.908Z,4.20
2018-07-14T11:20:13.414Z,5.67
2018-07-14T11:22:41.856Z,4.27
2018-07-14T11:25:10.378Z,4.83
2018-07-14T11:27:38.902Z,3.80
2018-07-14T11:30:07.625Z,4.83
2018-07-14T11:32:36.076Z,5.47
2018-07-14T11:35:04.648Z,4.80
2018-07-14T11:37:33.170Z,5.67
2018-07-14T11:40:01.581Z,7.53
2018-07-14T11:42:29.873Z,5.27
2018-07-14T11:44:58.390Z,5.87
2018-07-14T11:47:28.489Z,4.83
2018-07-14T11:49:57.124Z,4.47
2018-07-14T11:52:25.660Z,5.77
2018-07-14T11:54:54.084Z,7.00
2018-07-14T11:57:22.542Z,4.70
2018-07-14T11:59:51.233Z,4.37
2018-07-14T12:02:19.755Z,4.47
2018-07-14T12:04:48.331Z,4.93
2018-07-14T12:07:16.825Z,4.20
2018-07-14T12:09:45.322Z,5.47
2018-07-14T12:12:13.912Z,3.93
2018-07-14T12:14:42.646Z,6.27
2018-07-14T12:17:11.174Z,4.23
2018-07-14T12:19:39.618Z,4.10
2018-07-14T12:22:08.291Z,4.33
2018-07-14T12:24:36.831Z,4.10
2018-07-14T12:27:05.496Z,5.87
2018-07-14T12:29:34.030Z,3.53
2018-07-14T12:32:02.495Z,4.00
2018-07-14T12:34:31.333Z,6.23
2018-07-14T12:36:59.759Z,5.33
2018-07-14T12:39:28.200Z,4.33
2018-07-14T12:41:56.782Z,4.73
2018-07-14T12:44:25.215Z,4.20
2018-07-14T12:46:53.760Z,7.60
2018-07-14T12:49:22.182Z,4.17
2018-07-14T12:51:50.800Z,4.17
2018-07-14T12:54:19.231Z,6.30
2018-07-14T12:56:47.727Z,8.60
2018-07-14T12:59:16.235Z,4.03
2018-07-14T13:01:44.687Z,4.30
2018-07-14T13:04:13.214Z,5.67
2018-07-14T13:06:41.917Z,3.70
2018-07-14T13:09:10.401Z,3.90
2018-07-14T13:11:39.000Z,6.73
2018-07-14T13:14:07.628Z,4.03
2018-07-14T13:16:36.188Z,5.63
2018-07-14T13:19:04.608Z,4.10
2018-07-14T13:21:33.036Z,3.67
2018-07-14T13:24:01.604Z,4.10
2018-07-14T13:26:30.032Z,3.10
2018-07-14T13:28:58.654Z,3.37
2018-07-14T13:31:27.102Z,3.50
2018-07-14T13:33:55.605Z,3.80
2018-07-14T13:36:24.141Z,3.30
2018-07-14T13:38:52.510Z,3.67
2018-07-14T13:41:20.952Z,4.70
2018-07-14T13:43:49.508Z,3.00
2018-07-14T13:46:18.053Z,3.30
2018-07-14T13:48:46.552Z,3.27
2018-07-14T13:51:16.392Z,3.80
2018-07-14T13:53:44.872Z,3.60
2018-07-14T13:56:13.394Z,3.70
2018-07-14T13:58:41.832Z,4.33
2018-07-14T14:01:10.438Z,4.67
2018-07-14T14:03:38.994Z,4.47
2018-07-14T14:06:07.443Z,3.57
2018-07-14T14:08:35.885Z,4.27
2018-07-14T14:11:04.403Z,3.63
2018-07-14T14:13:32.859Z,3.83
2018-07-14T14:16:01.370Z,3.83
2018-07-14T14:18:29.968Z,5.07
2018-07-14T14:20:58.388Z,3.87
2018-07-14T14:23:26.939Z,9.43
2018-07-14T14:25:55.415Z,3.47
2018-07-14T14:28:24.103Z,3.70
2018-07-14T14:30:52.513Z,3.07
2018-07-14T14:33:20.968Z,3.37
2018-07-14T14:35:49.414Z,4.67
2018-07-14T14:38:17.983Z,3.13
2018-07-14T14:40:46.568Z,3.50
2018-07-14T14:43:15.059Z,3.77
2018-07-14T14:45:43.558Z,3.60
2018-07-14T14:48:12.098Z,3.63
2018-07-14T14:50:40.589Z,3.50
2018-07-14T14:53:09.137Z,3.40
2018-07-14T14:55:37.987Z,4.20
2018-07-14T14:58:06.873Z,3.17
2018-07-14T15:00:35.519Z,4.80
2018-07-14T15:03:04.100Z,4.63
2018-07-14T15:05:32.537Z,8.33
2018-07-14T15:08:00.941Z,3.73
2018-07-14T15:10:29.112Z,3.93
2018-07-14T15:12:57.243Z,4.53
2018-07-14T15:15:25.868Z,3.33
2018-07-14T15:17:54.310Z,4.20
2018-07-14T15:20:22.759Z,4.00
2018-07-14T15:22:53.159Z,3.10
2018-07-14T15:25:21.771Z,3.97
2018-07-14T15:27:50.213Z,2.97
2018-07-14T15:30:18.619Z,3.20
2018-07-14T15:32:47.176Z,7.53
2018-07-14T15:35:16.473Z,2.80
2018-07-14T15:37:44.973Z,2.90
2018-07-14T15:40:13.677Z,3.25
2018-07-14T15:42:42.585Z,5.58
2018-07-14T15:45:11.222Z,2.90
2018-07-14T15:47:39.759Z,5.12
2018-07-14T15:50:08.426Z,4.40
2018-07-14T15:52:37.057Z,4.00
2018-07-14T15:55:05.910Z,3.23
2018-07-14T15:57:34.374Z,3.33
2018-07-14T16:00:02.902Z,4.70
2018-07-14T16:02:31.427Z,4.63
2018-07-14T16:05:00.037Z,3.40
2018-07-14T16:07:28.582Z,3.33
2018-07-14T16:09:57.072Z,4.23
2018-07-14T16:12:25.645Z,5.53
2018-07-14T16:14:54.187Z,4.57
2018-07-14T16:17:22.652Z,5.37
2018-07-14T16:19:51.198Z,3.60
2018-07-14T16:22:19.627Z,3.40
2018-07-14T16:24:48.166Z,3.60
2018-07-14T16:27:16.676Z,3.90
2018-07-14T16:29:45.115Z,6.77
2018-07-14T16:32:13.696Z,3.67
2018-07-14T16:34:42.268Z,4.03
2018-07-14T16:37:10.734Z,3.87
2018-07-14T16:39:39.234Z,6.73
2018-07-14T16:42:07.930Z,5.70
2018-07-14T16:44:36.417Z,3.73
2018-07-14T16:47:04.979Z,3.60
2018-07-14T16:49:33.633Z,3.50
2018-07-14T16:52:02.262Z,6.80
2018-07-14T16:54:32.063Z,4.57
2018-07-14T16:57:00.803Z,3.72
2018-07-14T16:59:29.486Z,3.58
2018-07-14T17:01:58.007Z,3.20
2018-07-14T17:04:26.508Z,5.20
2018-07-14T17:06:54.968Z,3.50
2018-07-14T17:09:23.376Z,5.57
2018-07-14T17:11:51.792Z,6.33
2018-07-14T17:14:20.246Z,3.73
2018-07-14T17:16:48.720Z,3.80
2018-07-14T17:19:17.216Z,4.37
2018-07-14T17:21:45.854Z,3.30
2018-07-14T17:24:14.315Z,4.97
2018-07-14T17:26:42.759Z,3.30
2018-07-14T17:29:11.242Z,8.57
2018-07-14T17:31:39.851Z,6.03
2018-07-14T17:34:08.359Z,3.83
2018-07-14T17:36:36.794Z,3.70
2018-07-14T17:39:07.159Z,4.80
2018-07-14T17:41:35.611Z,3.10
2018-07-14T17:44:04.223Z,4.83
2018-07-14T17:46:32.711Z,4.53
2018-07-14T17:49:01.315Z,4.97
2018-07-14T17:51:29.966Z,4.57
2018-07-14T17:53:58.444Z,4.30
2018-07-14T17:56:26.929Z,5.90
2018-07-14T17:58:55.568Z,6.77
2018-07-14T18:01:24.076Z,6.13
2018-07-14T18:03:52.797Z,3.83
2018-07-14T18:06:21.267Z,4.10
2018-07-14T18:08:49.761Z,5.87
2018-07-14T18:11:18.325Z,7.13
2018-07-14T18:13:46.797Z,5.47
2018-07-14T18:16:15.287Z,6.00
2018-07-14T18:18:43.868Z,4.17
2018-07-14T18:21:12.422Z,4.13
2018-07-14T18:23:40.860Z,4.97
2018-07-14T18:26:09.379Z,4.23
2018-07-14T18:28:38.870Z,4.57
2018-07-14T18:31:07.469Z,4.30
2018-07-14T18:33:36.083Z,6.23
2018-07-14T18:36:04.607Z,8.63
2018-07-14T18:38:33.047Z,5.17
2018-07-14T18:41:01.614Z,8.63
2018-07-14T18:43:30.093Z,5.80
2018-07-14T18:45:58.571Z,6.23
2018-07-14T18:48:27.104Z,5.60
2018-07-14T18:50:55.634Z,4.57
2018-07-14T18:53:24.243Z,10.00
2018-07-14T18:55:52.660Z,6.30
2018-07-14T18:58:21.272Z,8.77
2018-07-14T19:00:51.579Z,4.93
2018-07-14T19:03:20.088Z,4.93
2018-07-14T19:05:48.699Z,8.73
2018-07-14T19:08:17.150Z,5.13
2018-07-14T19:10:45.677Z,5.43
2018-07-14T19:13:14.200Z,8.40
2018-07-14T19:15:42.759Z,4.67
2018-07-14T19:18:11.167Z,6.20
2018-07-14T19:20:40.421Z,5.67
2018-07-14T19:23:08.957Z,6.60
2018-07-14T19:25:37.588Z,6.83
2018-07-14T19:28:06.084Z,5.87
2018-07-14T19:30:34.600Z,5.93
2018-07-14T19:33:03.243Z,5.77
2018-07-14T19:35:31.658Z,6.90
2018-07-14T19:38:00.307Z,7.03
2018-07-14T19:40:28.799Z,5.47
2018-07-14T19:42:57.336Z,11.67
2018-07-14T19:45:25.725Z,10.67
2018-07-14T19:47:54.240Z,9.27
2018-07-14T19:50:22.923Z,10.20
2018-07-14T19:52:51.411Z,12.97
2018-07-14T19:55:19.986Z,11.23
2018-07-14T19:57:48.476Z,10.93
2018-07-14T20:00:17.166Z,9.30
2018-07-14T20:02:45.719Z,6.70
2018-07-14T20:05:14.309Z,6.77
2018-07-14T20:07:42.906Z,6.93
2018-07-14T20:10:12.485Z,7.63
2018-07-14T20:12:40.968Z,9.07
2018-07-14T20:15:09.747Z,9.97
2018-07-14T20:17:38.622Z,9.23
2018-07-14T20:20:08.243Z,7.00
2018-07-14T20:22:36.687Z,9.90
2018-07-14T20:25:05.539Z,7.60
2018-07-14T20:27:34.015Z,6.40
2018-07-14T20:30:02.792Z,6.83
2018-07-14T20:32:31.266Z,7.30
2018-07-14T20:34:59.796Z,6.90
2018-07-14T20:37:28.153Z,9.87
2018-07-14T20:39:56.600Z,6.87
2018-07-14T20:42:25.510Z,7.83
2018-07-14T20:44:54.031Z,7.30
2018-07-14T20:47:22.580Z,8.00
2018-07-14T20:49:51.099Z,7.43
2018-07-14T20:52:19.613Z,7.63
2018-07-14T20:54:48.115Z,7.70
2018-07-14T20:57:16.672Z,7.53
2018-07-14T20:59:45.136Z,7.43
2018-07-14T21:02:13.887Z,7.00
2018-07-14T21:04:42.446Z,8.47
2018-07-14T21:07:11.116Z,7.27
2018-07-14T21:09:39.763Z,8.77
2018-07-14T21:12:08.244Z,8.60
2018-07-14T21:14:36.660Z,8.67
2018-07-14T21:17:05.376Z,9.00
2018-07-14T21:19:33.809Z,10.70
2018-07-14T21:22:02.282Z,7.40
2018-07-14T21:24:30.791Z,8.03
2018-07-14T21:26:59.302Z,7.87
2018-07-14T21:29:27.963Z,8.17
2018-07-14T21:31:56.704Z,8.03
2018-07-14T21:34:25.248Z,8.77
2018-07-14T21:36:53.903Z,7.93
2018-07-14T21:39:22.436Z,8.63
2018-07-14T21:41:51.339Z,8.10
2018-07-14T21:44:19.847Z,8.53
2018-07-14T21:46:48.300Z,7.90
2018-07-14T21:49:16.777Z,8.53
2018-07-14T21:51:45.265Z,8.50
2018-07-14T21:54:13.832Z,8.70
2018-07-14T21:56:42.416Z,8.93
2018-07-14T21:59:10.955Z,8.77
2018-07-14T22:01:44.771Z,8.60
2018-07-14T22:04:12.949Z,8.47
2018-07-14T22:06:41.360Z,8.60
2018-07-14T22:09:09.843Z,9.47
2018-07-14T22:11:38.474Z,9.07
2018-07-14T22:14:07.023Z,8.83
2018-07-14T22:16:35.456Z,8.47
2018-07-14T22:19:03.976Z,11.30
2018-07-14T22:21:32.720Z,8.37
2018-07-14T22:24:01.349Z,8.40
2018-07-14T22:26:29.832Z,7.90
2018-07-14T22:28:58.400Z,8.67
2018-07-14T22:31:27.522Z,10.07
2018-07-14T22:33:55.987Z,8.37
2018-07-14T22:36:24.799Z,8.33
2018-07-14T22:38:53.579Z,8.73
2018-07-14T22:41:23.344Z,8.40
2018-07-14T22:43:51.777Z,8.67
2018-07-14T22:46:22.356Z,9.07
2018-07-14T22:48:50.772Z,13.53
2018-07-14T22:51:19.461Z,9.27
2018-07-14T22:53:47.845Z,8.60
2018-07-14T22:56:16.379Z,8.97
2018-07-14T22:58:44.831Z,9.93
2018-07-14T23:01:13.300Z,9.37
2018-07-14T23:03:41.844Z,10.40
2018-07-14T23:06:10.294Z,10.10
2018-07-14T23:08:38.932Z,10.00
2018-07-14T23:11:08.090Z,10.27
2018-07-14T23:13:36.619Z,10.33
2018-07-14T23:16:05.335Z,10.07
2018-07-14T23:18:33.766Z,10.23
2018-07-14T23:21:02.180Z,9.17
2018-07-14T23:23:30.674Z,10.30
2018-07-14T23:25:59.155Z,10.27
2018-07-14T23:28:27.719Z,9.87
2018-07-14T23:30:56.173Z,9.80
2018-07-14T23:33:24.664Z,9.80
2018-07-14T23:35:53.102Z,10.10
2018-07-14T23:38:21.598Z,10.50
2018-07-14T23:40:51.199Z,11.23
2018-07-14T23:43:19.633Z,9.40
2018-07-14T23:45:48.054Z,10.27
2018-07-14T23:48:16.464Z,11.80
2018-07-14T23:50:45.100Z,9.60
2018-07-14T23:53:13.556Z,10.00
2018-07-14T23:55:42.059Z,9.60
2018-07-14T23:58:10.530Z,9.33
